createdAt,value
2019-04-20T00:04:35.213Z,24.05
2019-04-20T00:09:40.046Z,23.60
2019-04-20T00:14:45.971Z,24.23
2019-04-20T00:19:55.519Z,21.13
2019-04-20T00:25:25.477Z,21.52
2019-04-20T00:30:50.342Z,21.60
2019-04-20T00:35:40.179Z,21.23
2019-04-20T00:40:49.522Z,20.77
2019-04-20T00:46:04.870Z,20.77
2019-04-20T00:51:21.457Z,20.67
2019-04-20T00:56:09.873Z,21.73
2019-04-20T01:01:37.816Z,19.47
2019-04-20T01:06:56.295Z,20.40
2019-04-20T01:11:49.457Z,18.67
2019-04-20T01:17:02.142Z,17.95
2019-04-20T01:22:07.891Z,20.10
2019-04-20T01:27:24.957Z,18.35
2019-04-20T01:32:27.833Z,20.50
2019-04-20T01:37:36.279Z,17.90
2019-04-20T01:42:32.295Z,18.77
2019-04-20T01:47:45.800Z,20.43
2019-04-20T01:52:58.038Z,17.83
2019-04-20T01:58:35.921Z,17.07
2019-04-20T02:03:50.177Z,17.63
2019-04-20T02:09:00.347Z,18.20
2019-04-20T02:14:05.209Z,16.23
2019-04-20T02:19:23.011Z,18.65
2019-04-20T02:24:17.720Z,18.37
2019-04-20T02:29:44.612Z,16.37
2019-04-20T02:35:26.037Z,17.05
2019-04-20T02:50:50.017Z,17.05
2019-04-20T03:00:58.680Z,16.48
2019-04-20T03:05:59.767Z,15.38
2019-04-20T03:11:17.781Z,15.98
2019-04-20T03:16:16.472Z,16.80
2019-04-20T03:21:24.770Z,17.45
2019-04-20T03:26:55.988Z,15.05
2019-04-20T03:37:23.252Z,16.97
2019-04-20T03:42:01.019Z,15.03
2019-04-20T03:47:11.565Z,15.93
2019-04-20T03:52:37.706Z,13.78
2019-04-20T03:58:15.307Z,14.03
2019-04-20T04:03:37.947Z,15.55
2019-04-20T04:08:24.886Z,14.50
2019-04-20T04:13:20.996Z,14.83
2019-04-20T04:18:33.275Z,13.60
2019-04-20T04:23:48.928Z,15.13
2019-04-20T04:29:00.763Z,12.73
2019-04-20T04:34:10.779Z,13.90
2019-04-20T04:39:22.154Z,13.72
2019-04-20T04:44:22.608Z,11.57
2019-04-20T04:49:22.832Z,11.17
2019-04-20T04:54:28.941Z,13.10
2019-04-20T04:59:27.560Z,11.70
2019-04-20T05:05:29.396Z,11.83
2019-04-20T05:10:09.772Z,12.18
2019-04-20T05:15:32.408Z,12.27
2019-04-20T05:20:46.827Z,14.27
2019-04-20T05:26:14.298Z,13.70
2019-04-20T05:31:06.325Z,19.77
2019-04-20T05:36:28.150Z,17.67
2019-04-20T05:41:38.378Z,16.43
2019-04-20T05:46:45.928Z,17.47
2019-04-20T05:51:56.306Z,18.80
2019-04-20T05:57:07.857Z,17.73
2019-04-20T06:02:14.055Z,22.00
2019-04-20T06:07:24.018Z,20.43
2019-04-20T06:12:30.060Z,20.87
2019-04-20T06:17:49.090Z,20.47
2019-04-20T06:23:03.454Z,19.10
2019-04-20T06:28:02.896Z,18.27
2019-04-20T06:34:18.414Z,18.33
2019-04-20T06:39:02.622Z,21.80
2019-04-20T06:44:08.471Z,19.27
2019-04-20T06:49:22.438Z,19.20
2019-04-20T06:54:17.313Z,18.87
2019-04-20T06:59:38.959Z,17.90
2019-04-20T07:04:57.949Z,18.10
2019-04-20T07:14:47.434Z,17.63
2019-04-20T07:20:09.886Z,16.27
2019-04-20T07:25:20.266Z,15.23
2019-04-20T07:30:22.453Z,13.37
2019-04-20T07:35:37.247Z,11.83
2019-04-20T07:40:38.163Z,9.80
2019-04-20T07:45:48.801Z,10.40
2019-04-20T07:50:50.914Z,8.73
2019-04-20T07:56:07.555Z,10.10
2019-04-20T08:01:23.785Z,9.70
2019-04-20T08:06:17.506Z,11.00
2019-04-20T08:11:37.994Z,10.93
2019-04-20T08:21:52.092Z,10.73
2019-04-20T08:26:47.143Z,10.70
2019-04-20T08:32:12.373Z,10.97
2019-04-20T08:43:42.111Z,11.20
2019-04-20T08:48:40.646Z,10.80
2019-04-20T08:53:47.007Z,10.93
2019-04-20T08:58:36.787Z,11.73
2019-04-20T09:03:54.998Z,11.97
2019-04-20T09:09:03.694Z,12.27
2019-04-20T09:14:16.371Z,12.40
2019-04-20T09:19:30.877Z,12.00
2019-04-20T09:24:51.509Z,10.97
2019-04-20T09:29:54.866Z,9.43
2019-04-20T09:35:11.765Z,10.17
2019-04-20T09:40:46.134Z,9.30
2019-04-20T09:45:49.903Z,8.10
2019-04-20T09:51:09.171Z,8.70
2019-04-20T09:56:18.155Z,8.13
2019-04-20T10:01:19.021Z,7.40
2019-04-20T10:06:17.949Z,7.47
2019-04-20T10:11:25.424Z,7.17
2019-04-20T10:16:31.611Z,7.17
2019-04-20T10:21:38.203Z,5.83
2019-04-20T10:26:44.938Z,6.93
2019-04-20T10:31:55.762Z,5.50
2019-04-20T10:37:17.592Z,10.90
2019-04-20T10:42:23.944Z,12.93
2019-04-20T10:47:30.031Z,13.03
2019-04-20T10:52:36.052Z,10.37
2019-04-20T10:57:43.716Z,10.20
2019-04-20T11:02:51.336Z,9.53
2019-04-20T11:07:57.221Z,8.27
2019-04-20T11:13:03.318Z,8.30
2019-04-20T11:18:09.324Z,7.30
2019-04-20T11:23:16.137Z,9.53
2019-04-20T11:28:22.210Z,7.50
2019-04-20T11:33:28.086Z,7.87
2019-04-20T11:38:35.120Z,6.77
2019-04-20T11:43:41.944Z,7.53
2019-04-20T11:48:48.044Z,6.00
2019-04-20T11:53:54.342Z,5.30
2019-04-20T11:59:00.937Z,5.83
2019-04-20T12:04:22.751Z,5.90
2019-04-20T12:09:15.056Z,4.20
2019-04-20T12:14:20.838Z,4.57
2019-04-20T12:19:26.991Z,4.33
2019-04-20T12:24:33.231Z,4.60
2019-04-20T12:29:40.507Z,4.90
2019-04-20T12:34:47.469Z,3.60
2019-04-20T12:39:55.313Z,4.25
2019-04-20T12:45:01.768Z,4.60
2019-04-20T12:50:09.735Z,4.77
2019-04-20T12:55:16.649Z,4.58
2019-04-20T13:00:27.709Z,4.45
2019-04-20T13:05:33.878Z,5.15
2019-04-20T13:10:40.239Z,4.77
2019-04-20T13:16:05.001Z,4.75
2019-04-20T13:21:11.204Z,4.90
2019-04-20T13:26:17.571Z,4.80
2019-04-20T13:31:24.465Z,4.28
2019-04-20T13:36:30.450Z,3.70
2019-04-20T13:41:36.243Z,3.92
2019-04-20T13:46:42.928Z,3.80
2019-04-20T13:51:49.007Z,4.10
2019-04-20T13:56:55.941Z,3.52
2019-04-20T14:02:24.763Z,3.53
2019-04-20T14:07:31.398Z,3.42
2019-04-20T14:12:44.559Z,3.37
2019-04-20T14:17:44.859Z,3.45
2019-04-20T14:22:52.249Z,3.05
2019-04-20T14:27:58.779Z,3.27
2019-04-20T14:33:05.220Z,3.00
2019-04-20T14:38:12.916Z,3.42
2019-04-20T14:43:19.332Z,3.10
2019-04-20T14:48:26.859Z,3.00
2019-04-20T14:53:35.410Z,3.20
2019-04-20T14:59:03.574Z,3.40
2019-04-20T15:04:15.145Z,3.05
2019-04-20T15:09:17.034Z,2.98
2019-04-20T15:14:22.871Z,3.50
2019-04-20T15:19:39.233Z,4.08
2019-04-20T15:24:45.280Z,3.83
2019-04-20T15:29:51.342Z,3.20
2019-04-20T15:34:57.197Z,3.55
2019-04-20T15:40:03.444Z,3.22
2019-04-20T15:45:09.658Z,4.40
2019-04-20T15:50:16.002Z,4.10
2019-04-20T15:55:27.429Z,4.45
2019-04-20T16:00:29.749Z,4.85
2019-04-20T16:05:40.814Z,5.83
2019-04-20T16:10:46.747Z,7.78
2019-04-20T16:15:55.898Z,6.90
2019-04-20T16:21:10.077Z,8.05
2019-04-20T16:26:21.840Z,8.45
2019-04-20T16:31:28.848Z,10.08
2019-04-20T16:36:34.888Z,9.18
2019-04-20T16:41:40.684Z,8.60
2019-04-20T16:46:47.969Z,9.10
2019-04-20T16:51:54.773Z,9.00
2019-04-20T16:57:02.606Z,8.35
2019-04-20T17:02:08.792Z,9.13
2019-04-20T17:07:35.091Z,8.15
2019-04-20T17:12:41.912Z,8.93
2019-04-20T17:17:49.624Z,9.03
2019-04-20T17:22:56.241Z,8.48
2019-04-20T17:28:20.689Z,8.20
2019-04-20T17:33:49.580Z,8.78
2019-04-20T17:38:52.647Z,9.15
2019-04-20T17:44:12.998Z,8.35
2019-04-20T17:49:15.824Z,8.90
2019-04-20T17:54:33.578Z,14.25
2019-04-20T17:59:50.657Z,16.40
2019-04-20T18:05:22.908Z,18.67
2019-04-20T18:10:26.054Z,17.60
2019-04-20T18:15:36.852Z,20.00
2019-04-20T18:20:48.537Z,19.60
2019-04-20T18:26:17.155Z,23.12
2019-04-20T18:31:21.778Z,24.18
2019-04-20T18:36:34.026Z,22.02
2019-04-20T18:41:41.821Z,25.02
2019-04-20T18:47:09.489Z,24.67
2019-04-20T18:51:53.570Z,24.97
2019-04-20T18:56:59.860Z,28.55
2019-04-20T19:02:15.049Z,25.60
2019-04-20T19:07:14.875Z,25.70
2019-04-20T19:12:28.483Z,26.30
2019-04-20T19:17:49.770Z,26.95
2019-04-20T19:22:46.036Z,22.97
2019-04-20T19:27:55.857Z,25.53
2019-04-20T19:33:14.917Z,23.85
2019-04-20T19:38:15.661Z,25.50
2019-04-20T19:43:23.465Z,28.65
2019-04-20T19:48:39.060Z,26.73
2019-04-20T19:53:58.698Z,24.65
2019-04-20T19:58:58.996Z,26.30
2019-04-20T20:03:57.474Z,26.07
2019-04-20T20:09:03.089Z,25.87
2019-04-20T20:14:08.151Z,24.90
2019-04-20T20:19:29.553Z,27.65
2019-04-20T20:24:21.277Z,28.52
2019-04-20T20:29:34.169Z,27.10
2019-04-20T20:34:41.478Z,27.50
2019-04-20T20:39:53.780Z,29.40
2019-04-20T20:44:54.954Z,29.87
2019-04-20T20:50:22.647Z,30.55
2019-04-20T20:55:18.168Z,33.20
2019-04-20T21:00:22.673Z,31.43
2019-04-20T21:05:21.935Z,34.08
2019-04-20T21:10:34.539Z,32.37
2019-04-20T21:15:35.542Z,34.53
2019-04-20T21:21:00.994Z,29.80
2019-04-20T21:26:11.044Z,32.50
2019-04-20T21:31:21.982Z,31.13
2019-04-20T21:36:26.237Z,31.83
2019-04-20T21:41:30.968Z,31.87
2019-04-20T21:46:44.220Z,31.70
2019-04-20T21:51:54.836Z,33.03
2019-04-20T21:56:56.249Z,31.97
2019-04-20T22:02:09.806Z,39.23
2019-04-20T22:07:08.085Z,34.50
2019-04-20T22:12:14.174Z,37.50
2019-04-20T22:17:25.923Z,37.67
2019-04-20T22:22:42.480Z,36.93
2019-04-20T22:27:36.997Z,32.97
2019-04-20T22:32:46.996Z,32.45
2019-04-20T22:38:17.281Z,29.33
2019-04-20T22:43:27.563Z,27.90
2019-04-20T22:48:33.236Z,26.37
2019-04-20T22:53:49.781Z,26.77
2019-04-20T22:58:57.596Z,28.53
2019-04-20T23:03:54.857Z,27.30
2019-04-20T23:09:04.842Z,27.80
2019-04-20T23:14:10.813Z,26.35
2019-04-20T23:19:28.823Z,23.62
2019-04-20T23:24:24.494Z,26.20
2019-04-20T23:29:34.554Z,27.05
2019-04-20T23:34:39.687Z,28.95
2019-04-20T23:39:49.185Z,26.40
2019-04-20T23:45:16.862Z,26.48
2019-04-20T23:50:43.311Z,25.77
2019-04-20T23:55:31.767Z,27.70
